sensor_id;sensor_type;location;lat;lon;timestamp;P1;durP1;ratioP1;P2;durP2;ratioP2
64667;SDS011;51077;42.716;23.344;2022-07-24T00:02:24;11.17;;;6.27;;
64667;SDS011;51077;42.716;23.344;2022-07-24T00:04:49;10.40;;;6.17;;
64667;SDS011;51077;42.716;23.344;2022-07-24T00:07:16;10.80;;;6.25;;
64667;SDS011;51077;42.716;23.344;2022-07-24T00:09:41;15.57;;;6.60;;
64667;SDS011;51077;42.716;23.344;2022-07-24T00:12:07;10.40;;;6.47;;
64667;SDS011;51077;42.716;23.344;2022-07-24T00:14:33;17.13;;;6.90;;
64667;SDS011;51077;42.716;23.344;2022-07-24T00:16:58;14.50;;;6.63;;
64667;SDS011;51077;42.716;23.344;2022-07-24T00:19:24;12.67;;;6.30;;
64667;SDS011;51077;42.716;23.344;2022-07-24T00:21:49;14.33;;;7.60;;
64667;SDS011;51077;42.716;23.344;2022-07-24T00:24:15;11.07;;;6.33;;
64667;SDS011;51077;42.716;23.344;2022-07-24T00:26:40;16.13;;;6.57;;
64667;SDS011;51077;42.716;23.344;2022-07-24T00:29:06;11.80;;;6.10;;
64667;SDS011;51077;42.716;23.344;2022-07-24T00:31:31;13.93;;;6.93;;
64667;SDS011;51077;42.716;23.344;2022-07-24T00:33:57;11.83;;;5.97;;
64667;SDS011;51077;42.716;23.344;2022-07-24T00:36:22;11.87;;;6.23;;
64667;SDS011;51077;42.716;23.344;2022-07-24T00:38:48;13.23;;;6.37;;
64667;SDS011;51077;42.716;23.344;2022-07-24T00:41:13;12.97;;;5.83;;
64667;SDS011;51077;42.716;23.344;2022-07-24T00:46:27;11.55;;;5.88;;
64667;SDS011;51077;42.716;23.344;2022-07-24T00:48:53;10.87;;;5.57;;
64667;SDS011;51077;42.716;23.344;2022-07-24T00:51:18;8.97;;;5.40;;
64667;SDS011;51077;42.716;23.344;2022-07-24T00:53:44;12.07;;;6.63;;
64667;SDS011;51077;42.716;23.344;2022-07-24T00:56:09;12.80;;;5.50;;
64667;SDS011;51077;42.716;23.344;2022-07-24T00:58:34;9.03;;;5.07;;
64667;SDS011;51077;42.716;23.344;2022-07-24T01:01:00;11.10;;;5.37;;
64667;SDS011;51077;42.716;23.344;2022-07-24T01:03:25;8.87;;;5.60;;
64667;SDS011;51077;42.716;23.344;2022-07-24T01:05:51;11.57;;;5.90;;
64667;SDS011;51077;42.716;23.344;2022-07-24T01:08:16;11.07;;;5.70;;
64667;SDS011;51077;42.716;23.344;2022-07-24T01:10:42;11.83;;;5.70;;
64667;SDS011;51077;42.716;23.344;2022-07-24T01:13:07;13.03;;;6.27;;
64667;SDS011;51077;42.716;23.344;2022-07-24T01:15:34;11.02;;;6.40;;
64667;SDS011;51077;42.716;23.344;2022-07-24T01:17:59;13.50;;;6.23;;
64667;SDS011;51077;42.716;23.344;2022-07-24T01:20:25;12.87;;;6.73;;
64667;SDS011;51077;42.716;23.344;2022-07-24T01:22:50;12.17;;;5.97;;
64667;SDS011;51077;42.716;23.344;2022-07-24T01:25:15;14.17;;;6.50;;
64667;SDS011;51077;42.716;23.344;2022-07-24T01:27:41;15.77;;;6.87;;
64667;SDS011;51077;42.716;23.344;2022-07-24T01:30:07;12.53;;;7.03;;
64667;SDS011;51077;42.716;23.344;2022-07-24T01:32:33;11.05;;;6.60;;
64667;SDS011;51077;42.716;23.344;2022-07-24T01:34:58;14.23;;;7.20;;
64667;SDS011;51077;42.716;23.344;2022-07-24T01:37:23;12.03;;;6.73;;
64667;SDS011;51077;42.716;23.344;2022-07-24T01:39:49;10.83;;;6.97;;
64667;SDS011;51077;42.716;23.344;2022-07-24T01:42:14;17.03;;;7.33;;
64667;SDS011;51077;42.716;23.344;2022-07-24T01:44:40;11.83;;;6.33;;
64667;SDS011;51077;42.716;23.344;2022-07-24T01:47:05;13.30;;;7.03;;
64667;SDS011;51077;42.716;23.344;2022-07-24T01:49:30;11.37;;;6.73;;
64667;SDS011;51077;42.716;23.344;2022-07-24T01:51:56;16.27;;;7.63;;
64667;SDS011;51077;42.716;23.344;2022-07-24T01:54:22;14.30;;;7.23;;
64667;SDS011;51077;42.716;23.344;2022-07-24T01:56:47;9.90;;;6.23;;
64667;SDS011;51077;42.716;23.344;2022-07-24T01:59:12;12.33;;;7.03;;
64667;SDS011;51077;42.716;23.344;2022-07-24T02:01:38;12.97;;;6.87;;
64667;SDS011;51077;42.716;23.344;2022-07-24T02:04:03;9.23;;;6.17;;
64667;SDS011;51077;42.716;23.344;2022-07-24T02:06:29;13.20;;;6.77;;
64667;SDS011;51077;42.716;23.344;2022-07-24T02:08:54;10.13;;;6.50;;
64667;SDS011;51077;42.716;23.344;2022-07-24T02:11:20;12.27;;;7.03;;
64667;SDS011;51077;42.716;23.344;2022-07-24T02:13:45;10.93;;;6.60;;
64667;SDS011;51077;42.716;23.344;2022-07-24T02:16:11;11.27;;;6.50;;
64667;SDS011;51077;42.716;23.344;2022-07-24T02:18:37;14.73;;;7.07;;
64667;SDS011;51077;42.716;23.344;2022-07-24T02:21:03;12.50;;;6.23;;
64667;SDS011;51077;42.716;23.344;2022-07-24T02:23:28;12.93;;;6.73;;
64667;SDS011;51077;42.716;23.344;2022-07-24T02:25:54;16.77;;;6.63;;
64667;SDS011;51077;42.716;23.344;2022-07-24T02:28:19;14.37;;;7.00;;
64667;SDS011;51077;42.716;23.344;2022-07-24T02:30:45;12.13;;;7.20;;
64667;SDS011;51077;42.716;23.344;2022-07-24T02:33:11;9.13;;;6.33;;
64667;SDS011;51077;42.716;23.344;2022-07-24T02:35:37;15.13;;;7.22;;
64667;SDS011;51077;42.716;23.344;2022-07-24T02:38:02;13.65;;;6.80;;
64667;SDS011;51077;42.716;23.344;2022-07-24T02:40:29;12.20;;;6.60;;
64667;SDS011;51077;42.716;23.344;2022-07-24T02:42:54;16.77;;;7.60;;
64667;SDS011;51077;42.716;23.344;2022-07-24T02:45:20;12.00;;;6.60;;
64667;SDS011;51077;42.716;23.344;2022-07-24T02:47:50;14.70;;;6.63;;
64667;SDS011;51077;42.716;23.344;2022-07-24T02:52:46;12.63;;;7.50;;
64667;SDS011;51077;42.716;23.344;2022-07-24T02:55:12;16.23;;;7.00;;
64667;SDS011;51077;42.716;23.344;2022-07-24T02:57:38;14.37;;;7.70;;
64667;SDS011;51077;42.716;23.344;2022-07-24T03:00:04;17.83;;;6.87;;
64667;SDS011;51077;42.716;23.344;2022-07-24T03:02:32;10.50;;;6.68;;
64667;SDS011;51077;42.716;23.344;2022-07-24T03:04:57;12.93;;;7.50;;
64667;SDS011;51077;42.716;23.344;2022-07-24T03:07:23;10.33;;;6.67;;
64667;SDS011;51077;42.716;23.344;2022-07-24T03:09:48;11.37;;;6.80;;
64667;SDS011;51077;42.716;23.344;2022-07-24T03:12:13;13.03;;;6.70;;
64667;SDS011;51077;42.716;23.344;2022-07-24T03:14:39;13.00;;;7.20;;
64667;SDS011;51077;42.716;23.344;2022-07-24T03:17:04;13.63;;;7.30;;
64667;SDS011;51077;42.716;23.344;2022-07-24T03:19:30;15.27;;;6.87;;
64667;SDS011;51077;42.716;23.344;2022-07-24T03:21:55;13.63;;;7.10;;
64667;SDS011;51077;42.716;23.344;2022-07-24T03:24:21;14.50;;;8.23;;
64667;SDS011;51077;42.716;23.344;2022-07-24T03:26:46;11.83;;;6.80;;
64667;SDS011;51077;42.716;23.344;2022-07-24T03:29:11;12.80;;;6.67;;
64667;SDS011;51077;42.716;23.344;2022-07-24T03:31:37;11.80;;;6.13;;
64667;SDS011;51077;42.716;23.344;2022-07-24T03:34:02;13.10;;;6.53;;
64667;SDS011;51077;42.716;23.344;2022-07-24T03:36:28;14.20;;;6.83;;
64667;SDS011;51077;42.716;23.344;2022-07-24T03:38:53;13.40;;;7.10;;
64667;SDS011;51077;42.716;23.344;2022-07-24T03:41:18;11.60;;;6.63;;
64667;SDS011;51077;42.716;23.344;2022-07-24T03:43:44;10.00;;;6.27;;
64667;SDS011;51077;42.716;23.344;2022-07-24T03:46:09;13.23;;;6.27;;
64667;SDS011;51077;42.716;23.344;2022-07-24T03:48:35;16.83;;;7.00;;
64667;SDS011;51077;42.716;23.344;2022-07-24T03:51:00;10.50;;;6.23;;
64667;SDS011;51077;42.716;23.344;2022-07-24T03:53:26;12.13;;;6.10;;
64667;SDS011;51077;42.716;23.344;2022-07-24T03:55:51;14.03;;;5.90;;
64667;SDS011;51077;42.716;23.344;2022-07-24T03:58:17;12.07;;;6.10;;
64667;SDS011;51077;42.716;23.344;2022-07-24T04:00:42;15.00;;;6.70;;
64667;SDS011;51077;42.716;23.344;2022-07-24T04:03:08;13.60;;;6.70;;
64667;SDS011;51077;42.716;23.344;2022-07-24T04:05:33;14.80;;;6.83;;
64667;SDS011;51077;42.716;23.344;2022-07-24T04:07:58;11.27;;;6.67;;
64667;SDS011;51077;42.716;23.344;2022-07-24T04:10:24;9.33;;;6.10;;
64667;SDS011;51077;42.716;23.344;2022-07-24T04:12:49;13.40;;;6.60;;
64667;SDS011;51077;42.716;23.344;2022-07-24T04:15:15;12.80;;;5.83;;
64667;SDS011;51077;42.716;23.344;2022-07-24T04:17:40;15.03;;;6.93;;
64667;SDS011;51077;42.716;23.344;2022-07-24T04:20:06;13.95;;;6.70;;
64667;SDS011;51077;42.716;23.344;2022-07-24T04:22:33;15.02;;;7.72;;
64667;SDS011;51077;42.716;23.344;2022-07-24T04:24:58;15.20;;;8.27;;
64667;SDS011;51077;42.716;23.344;2022-07-24T04:27:24;17.07;;;8.40;;
64667;SDS011;51077;42.716;23.344;2022-07-24T04:29:49;16.70;;;8.03;;
64667;SDS011;51077;42.716;23.344;2022-07-24T04:32:15;17.83;;;8.57;;
64667;SDS011;51077;42.716;23.344;2022-07-24T04:34:40;16.73;;;7.37;;
64667;SDS011;51077;42.716;23.344;2022-07-24T04:37:06;19.57;;;8.10;;
64667;SDS011;51077;42.716;23.344;2022-07-24T04:39:31;18.60;;;8.40;;
64667;SDS011;51077;42.716;23.344;2022-07-24T04:41:56;15.57;;;7.73;;
64667;SDS011;51077;42.716;23.344;2022-07-24T04:44:22;15.37;;;8.23;;
64667;SDS011;51077;42.716;23.344;2022-07-24T04:46:47;18.23;;;8.10;;
64667;SDS011;51077;42.716;23.344;2022-07-24T04:49:13;17.20;;;7.57;;
64667;SDS011;51077;42.716;23.344;2022-07-24T04:51:38;13.70;;;7.70;;
64667;SDS011;51077;42.716;23.344;2022-07-24T04:54:03;13.77;;;7.03;;
64667;SDS011;51077;42.716;23.344;2022-07-24T04:56:29;15.10;;;7.40;;
64667;SDS011;51077;42.716;23.344;2022-07-24T04:58:57;13.27;;;7.82;;
64667;SDS011;51077;42.716;23.344;2022-07-24T05:01:22;14.87;;;6.73;;
64667;SDS011;51077;42.716;23.344;2022-07-24T05:03:48;14.93;;;7.03;;
64667;SDS011;51077;42.716;23.344;2022-07-24T05:06:13;13.70;;;6.57;;
64667;SDS011;51077;42.716;23.344;2022-07-24T05:08:38;15.17;;;6.83;;
64667;SDS011;51077;42.716;23.344;2022-07-24T05:11:04;12.30;;;7.07;;
64667;SDS011;51077;42.716;23.344;2022-07-24T05:13:29;14.37;;;6.10;;
64667;SDS011;51077;42.716;23.344;2022-07-24T05:15:55;17.60;;;7.93;;
64667;SDS011;51077;42.716;23.344;2022-07-24T05:18:20;17.77;;;6.93;;
64667;SDS011;51077;42.716;23.344;2022-07-24T05:20:46;12.23;;;6.47;;
64667;SDS011;51077;42.716;23.344;2022-07-24T05:23:11;14.07;;;7.20;;
64667;SDS011;51077;42.716;23.344;2022-07-24T05:25:37;12.63;;;7.13;;
64667;SDS011;51077;42.716;23.344;2022-07-24T05:28:02;13.27;;;7.10;;
64667;SDS011;51077;42.716;23.344;2022-07-24T05:30:28;15.37;;;7.53;;
64667;SDS011;51077;42.716;23.344;2022-07-24T05:32:54;12.10;;;7.27;;
64667;SDS011;51077;42.716;23.344;2022-07-24T05:35:19;16.07;;;7.37;;
64667;SDS011;51077;42.716;23.344;2022-07-24T05:37:45;18.60;;;8.00;;
64667;SDS011;51077;42.716;23.344;2022-07-24T05:40:10;14.13;;;8.97;;
64667;SDS011;51077;42.716;23.344;2022-07-24T05:42:36;14.18;;;7.85;;
64667;SDS011;51077;42.716;23.344;2022-07-24T05:45:02;13.00;;;7.63;;
64667;SDS011;51077;42.716;23.344;2022-07-24T05:47:28;14.27;;;7.43;;
64667;SDS011;51077;42.716;23.344;2022-07-24T05:50:00;15.15;;;7.90;;
64667;SDS011;51077;42.716;23.344;2022-07-24T05:52:25;13.87;;;7.63;;
64667;SDS011;51077;42.716;23.344;2022-07-24T05:54:51;12.80;;;7.10;;
64667;SDS011;51077;42.716;23.344;2022-07-24T05:57:16;11.97;;;6.90;;
64667;SDS011;51077;42.716;23.344;2022-07-24T05:59:42;13.97;;;7.53;;
64667;SDS011;51077;42.716;23.344;2022-07-24T06:02:07;15.43;;;7.50;;
64667;SDS011;51077;42.716;23.344;2022-07-24T06:04:32;14.03;;;7.40;;
64667;SDS011;51077;42.716;23.344;2022-07-24T06:07:00;13.45;;;7.72;;
64667;SDS011;51077;42.716;23.344;2022-07-24T06:09:26;14.03;;;7.53;;
64667;SDS011;51077;42.716;23.344;2022-07-24T06:11:52;14.90;;;7.95;;
64667;SDS011;51077;42.716;23.344;2022-07-24T06:14:17;16.97;;;7.87;;
64667;SDS011;51077;42.716;23.344;2022-07-24T06:16:43;11.93;;;7.03;;
64667;SDS011;51077;42.716;23.344;2022-07-24T06:19:08;12.27;;;7.10;;
64667;SDS011;51077;42.716;23.344;2022-07-24T06:21:33;17.93;;;7.03;;
64667;SDS011;51077;42.716;23.344;2022-07-24T06:23:59;15.33;;;7.40;;
64667;SDS011;51077;42.716;23.344;2022-07-24T06:26:24;18.00;;;7.13;;
64667;SDS011;51077;42.716;23.344;2022-07-24T06:28:49;19.60;;;7.40;;
64667;SDS011;51077;42.716;23.344;2022-07-24T06:31:15;14.03;;;7.03;;
64667;SDS011;51077;42.716;23.344;2022-07-24T06:33:40;15.87;;;7.37;;
64667;SDS011;51077;42.716;23.344;2022-07-24T06:36:06;18.13;;;7.57;;
64667;SDS011;51077;42.716;23.344;2022-07-24T06:38:32;16.65;;;8.38;;
64667;SDS011;51077;42.716;23.344;2022-07-24T06:40:57;11.70;;;7.40;;
64667;SDS011;51077;42.716;23.344;2022-07-24T06:43:22;14.47;;;7.30;;
64667;SDS011;51077;42.716;23.344;2022-07-24T06:45:48;13.80;;;7.13;;
64667;SDS011;51077;42.716;23.344;2022-07-24T06:48:13;13.03;;;7.30;;
64667;SDS011;51077;42.716;23.344;2022-07-24T06:50:39;14.70;;;7.10;;
64667;SDS011;51077;42.716;23.344;2022-07-24T06:53:04;12.97;;;7.03;;
64667;SDS011;51077;42.716;23.344;2022-07-24T06:55:29;12.17;;;7.23;;
64667;SDS011;51077;42.716;23.344;2022-07-24T06:57:55;12.43;;;6.77;;
64667;SDS011;51077;42.716;23.344;2022-07-24T07:00:21;15.63;;;7.13;;
64667;SDS011;51077;42.716;23.344;2022-07-24T07:02:46;14.17;;;7.17;;
64667;SDS011;51077;42.716;23.344;2022-07-24T07:05:12;13.17;;;6.83;;
64667;SDS011;51077;42.716;23.344;2022-07-24T07:07:37;10.70;;;6.47;;
64667;SDS011;51077;42.716;23.344;2022-07-24T07:10:04;17.30;;;8.20;;
64667;SDS011;51077;42.716;23.344;2022-07-24T07:12:30;13.10;;;7.30;;
64667;SDS011;51077;42.716;23.344;2022-07-24T07:14:55;14.10;;;7.77;;
64667;SDS011;51077;42.716;23.344;2022-07-24T07:17:23;10.57;;;7.03;;
64667;SDS011;51077;42.716;23.344;2022-07-24T07:19:48;10.63;;;6.73;;
64667;SDS011;51077;42.716;23.344;2022-07-24T07:22:14;12.70;;;6.50;;
64667;SDS011;51077;42.716;23.344;2022-07-24T07:24:39;15.00;;;6.20;;
64667;SDS011;51077;42.716;23.344;2022-07-24T07:27:05;11.47;;;6.30;;
64667;SDS011;51077;42.716;23.344;2022-07-24T07:29:30;15.47;;;6.47;;
64667;SDS011;51077;42.716;23.344;2022-07-24T07:31:56;12.13;;;6.63;;
64667;SDS011;51077;42.716;23.344;2022-07-24T07:34:21;16.93;;;6.73;;
64667;SDS011;51077;42.716;23.344;2022-07-24T07:36:46;13.40;;;6.47;;
64667;SDS011;51077;42.716;23.344;2022-07-24T07:39:12;15.87;;;6.57;;
64667;SDS011;51077;42.716;23.344;2022-07-24T07:41:37;10.27;;;6.93;;
64667;SDS011;51077;42.716;23.344;2022-07-24T07:44:03;15.07;;;7.40;;
64667;SDS011;51077;42.716;23.344;2022-07-24T07:46:29;11.20;;;6.03;;
64667;SDS011;51077;42.716;23.344;2022-07-24T07:48:55;19.43;;;7.23;;
64667;SDS011;51077;42.716;23.344;2022-07-24T07:51:20;10.83;;;5.63;;
64667;SDS011;51077;42.716;23.344;2022-07-24T07:53:46;15.30;;;6.10;;
64667;SDS011;51077;42.716;23.344;2022-07-24T07:56:11;11.93;;;6.77;;
64667;SDS011;51077;42.716;23.344;2022-07-24T07:58:37;12.23;;;6.20;;
64667;SDS011;51077;42.716;23.344;2022-07-24T08:01:02;14.03;;;6.40;;
64667;SDS011;51077;42.716;23.344;2022-07-24T08:03:28;12.37;;;6.60;;
64667;SDS011;51077;42.716;23.344;2022-07-24T08:05:53;12.80;;;6.40;;
64667;SDS011;51077;42.716;23.344;2022-07-24T08:08:19;14.00;;;7.07;;
64667;SDS011;51077;42.716;23.344;2022-07-24T08:10:44;13.23;;;5.70;;
64667;SDS011;51077;42.716;23.344;2022-07-24T08:13:10;14.10;;;5.73;;
64667;SDS011;51077;42.716;23.344;2022-07-24T08:15:37;15.33;;;5.40;;
64667;SDS011;51077;42.716;23.344;2022-07-24T08:18:03;10.57;;;5.57;;
64667;SDS011;51077;42.716;23.344;2022-07-24T08:20:29;13.13;;;5.87;;
64667;SDS011;51077;42.716;23.344;2022-07-24T08:22:54;11.57;;;6.00;;
64667;SDS011;51077;42.716;23.344;2022-07-24T08:25:20;12.93;;;6.67;;
64667;SDS011;51077;42.716;23.344;2022-07-24T08:27:46;14.47;;;7.20;;
64667;SDS011;51077;42.716;23.344;2022-07-24T08:30:12;15.53;;;7.10;;
64667;SDS011;51077;42.716;23.344;2022-07-24T08:32:38;10.73;;;6.93;;
64667;SDS011;51077;42.716;23.344;2022-07-24T08:35:04;13.10;;;6.93;;
64667;SDS011;51077;42.716;23.344;2022-07-24T08:37:34;9.33;;;7.00;;
64667;SDS011;51077;42.716;23.344;2022-07-24T08:40:01;12.70;;;7.03;;
64667;SDS011;51077;42.716;23.344;2022-07-24T08:42:26;10.10;;;6.30;;
64667;SDS011;51077;42.716;23.344;2022-07-24T08:44:52;13.67;;;6.90;;
64667;SDS011;51077;42.716;23.344;2022-07-24T08:47:17;13.30;;;7.00;;
64667;SDS011;51077;42.716;23.344;2022-07-24T08:49:44;11.53;;;6.47;;
64667;SDS011;51077;42.716;23.344;2022-07-24T08:52:11;12.73;;;6.83;;
64667;SDS011;51077;42.716;23.344;2022-07-24T08:54:39;14.33;;;6.73;;
64667;SDS011;51077;42.716;23.344;2022-07-24T08:57:05;16.60;;;6.70;;
64667;SDS011;51077;42.716;23.344;2022-07-24T08:59:30;10.50;;;6.43;;
64667;SDS011;51077;42.716;23.344;2022-07-24T09:01:56;12.33;;;6.00;;
64667;SDS011;51077;42.716;23.344;2022-07-24T09:07:16;13.37;;;6.37;;
64667;SDS011;51077;42.716;23.344;2022-07-24T09:09:44;12.33;;;6.30;;
64667;SDS011;51077;42.716;23.344;2022-07-24T09:12:24;10.77;;;5.83;;
64667;SDS011;51077;42.716;23.344;2022-07-24T09:14:49;16.07;;;6.50;;
64667;SDS011;51077;42.716;23.344;2022-07-24T09:17:16;16.37;;;6.57;;
64667;SDS011;51077;42.716;23.344;2022-07-24T09:19:53;13.27;;;6.37;;
64667;SDS011;51077;42.716;23.344;2022-07-24T09:25:07;11.30;;;6.20;;
64667;SDS011;51077;42.716;23.344;2022-07-24T09:28:00;9.83;;;5.97;;
64667;SDS011;51077;42.716;23.344;2022-07-24T09:35:36;11.53;;;6.47;;
64667;SDS011;51077;42.716;23.344;2022-07-24T09:38:08;14.00;;;6.07;;
64667;SDS011;51077;42.716;23.344;2022-07-24T09:40:36;13.53;;;6.23;;
64667;SDS011;51077;42.716;23.344;2022-07-24T09:43:13;6.80;;;5.37;;
64667;SDS011;51077;42.716;23.344;2022-07-24T09:48:23;14.03;;;5.60;;
64667;SDS011;51077;42.716;23.344;2022-07-24T09:50:54;11.20;;;5.83;;
64667;SDS011;51077;42.716;23.344;2022-07-24T09:53:24;13.67;;;6.60;;
64667;SDS011;51077;42.716;23.344;2022-07-24T09:58:28;12.03;;;5.87;;
64667;SDS011;51077;42.716;23.344;2022-07-24T10:00:56;11.43;;;5.70;;
64667;SDS011;51077;42.716;23.344;2022-07-24T10:03:27;9.63;;;6.03;;
64667;SDS011;51077;42.716;23.344;2022-07-24T10:05:55;10.03;;;6.43;;
64667;SDS011;51077;42.716;23.344;2022-07-24T10:08:26;6.20;;;4.40;;
64667;SDS011;51077;42.716;23.344;2022-07-24T10:10:53;9.90;;;5.70;;
64667;SDS011;51077;42.716;23.344;2022-07-24T10:13:19;11.33;;;5.50;;
64667;SDS011;51077;42.716;23.344;2022-07-24T10:18:19;11.40;;;6.00;;
64667;SDS011;51077;42.716;23.344;2022-07-24T10:20:45;12.07;;;5.73;;
64667;SDS011;51077;42.716;23.344;2022-07-24T10:25:54;12.80;;;5.33;;
64667;SDS011;51077;42.716;23.344;2022-07-24T10:31:06;10.47;;;4.77;;
64667;SDS011;51077;42.716;23.344;2022-07-24T10:33:33;9.07;;;5.27;;
64667;SDS011;51077;42.716;23.344;2022-07-24T10:36:02;10.50;;;5.33;;
64667;SDS011;51077;42.716;23.344;2022-07-24T10:38:36;9.50;;;5.10;;
64667;SDS011;51077;42.716;23.344;2022-07-24T10:43:37;7.18;;;5.03;;
64667;SDS011;51077;42.716;23.344;2022-07-24T10:48:29;5.53;;;4.70;;
64667;SDS011;51077;42.716;23.344;2022-07-24T10:53:23;9.83;;;4.53;;
64667;SDS011;51077;42.716;23.344;2022-07-24T10:55:50;8.37;;;4.63;;
64667;SDS011;51077;42.716;23.344;2022-07-24T10:58:15;8.17;;;4.83;;
64667;SDS011;51077;42.716;23.344;2022-07-24T11:00:48;12.20;;;4.50;;
64667;SDS011;51077;42.716;23.344;2022-07-24T11:06:00;8.83;;;4.70;;
64667;SDS011;51077;42.716;23.344;2022-07-24T11:08:27;8.75;;;5.30;;
64667;SDS011;51077;42.716;23.344;2022-07-24T11:10:57;9.20;;;4.77;;
64667;SDS011;51077;42.716;23.344;2022-07-24T11:26:40;9.60;;;5.17;;
64667;SDS011;51077;42.716;23.344;2022-07-24T11:29:25;8.17;;;4.50;;
64667;SDS011;51077;42.716;23.344;2022-07-24T11:31:58;8.27;;;4.93;;
64667;SDS011;51077;42.716;23.344;2022-07-24T11:34:26;9.43;;;4.93;;
64667;SDS011;51077;42.716;23.344;2022-07-24T11:36:53;9.83;;;5.37;;
64667;SDS011;51077;42.716;23.344;2022-07-24T11:39:26;13.33;;;5.40;;
64667;SDS011;51077;42.716;23.344;2022-07-24T11:41:54;8.70;;;5.13;;
64667;SDS011;51077;42.716;23.344;2022-07-24T11:46:55;14.07;;;4.87;;
64667;SDS011;51077;42.716;23.344;2022-07-24T11:49:23;7.33;;;4.70;;
64667;SDS011;51077;42.716;23.344;2022-07-24T11:51:50;7.63;;;4.87;;
64667;SDS011;51077;42.716;23.344;2022-07-24T11:54:26;10.33;;;5.30;;
64667;SDS011;51077;42.716;23.344;2022-07-24T11:56:53;9.83;;;5.70;;
64667;SDS011;51077;42.716;23.344;2022-07-24T11:59:20;6.50;;;4.87;;
64667;SDS011;51077;42.716;23.344;2022-07-24T12:01:47;9.87;;;5.10;;
64667;SDS011;51077;42.716;23.344;2022-07-24T12:04:13;11.23;;;4.97;;
64667;SDS011;51077;42.716;23.344;2022-07-24T12:06:48;8.70;;;4.93;;
64667;SDS011;51077;42.716;23.344;2022-07-24T12:09:14;9.67;;;4.90;;
64667;SDS011;51077;42.716;23.344;2022-07-24T12:11:39;10.63;;;5.83;;
64667;SDS011;51077;42.716;23.344;2022-07-24T12:14:15;7.23;;;4.70;;
64667;SDS011;51077;42.716;23.344;2022-07-24T12:16:41;9.93;;;5.13;;
64667;SDS011;51077;42.716;23.344;2022-07-24T12:19:17;8.70;;;5.03;;
64667;SDS011;51077;42.716;23.344;2022-07-24T12:21:45;8.90;;;5.40;;
64667;SDS011;51077;42.716;23.344;2022-07-24T12:24:12;11.47;;;5.47;;
64667;SDS011;51077;42.716;23.344;2022-07-24T12:26:48;8.43;;;5.17;;
64667;SDS011;51077;42.716;23.344;2022-07-24T12:29:21;12.82;;;5.18;;
64667;SDS011;51077;42.716;23.344;2022-07-24T12:31:47;10.10;;;5.57;;
64667;SDS011;51077;42.716;23.344;2022-07-24T12:34:13;9.10;;;5.27;;
64667;SDS011;51077;42.716;23.344;2022-07-24T12:36:39;9.30;;;5.53;;
64667;SDS011;51077;42.716;23.344;2022-07-24T12:39:05;9.20;;;5.17;;
64667;SDS011;51077;42.716;23.344;2022-07-24T12:41:31;11.23;;;5.40;;
64667;SDS011;51077;42.716;23.344;2022-07-24T12:44:09;7.20;;;5.57;;
64667;SDS011;51077;42.716;23.344;2022-07-24T12:46:35;11.60;;;4.73;;
64667;SDS011;51077;42.716;23.344;2022-07-24T12:54:16;9.50;;;5.10;;
64667;SDS011;51077;42.716;23.344;2022-07-24T12:56:43;8.33;;;4.83;;
64667;SDS011;51077;42.716;23.344;2022-07-24T12:59:09;10.40;;;5.43;;
64667;SDS011;51077;42.716;23.344;2022-07-24T13:01:50;7.70;;;5.10;;
64667;SDS011;51077;42.716;23.344;2022-07-24T13:04:17;8.27;;;4.87;;
64667;SDS011;51077;42.716;23.344;2022-07-24T13:06:46;5.93;;;4.53;;
64667;SDS011;51077;42.716;23.344;2022-07-24T13:09:13;11.90;;;5.20;;
64667;SDS011;51077;42.716;23.344;2022-07-24T13:11:39;11.70;;;4.87;;
64667;SDS011;51077;42.716;23.344;2022-07-24T13:14:06;8.17;;;5.00;;
64667;SDS011;51077;42.716;23.344;2022-07-24T13:16:34;6.83;;;4.37;;
64667;SDS011;51077;42.716;23.344;2022-07-24T13:19:02;8.03;;;4.40;;
64667;SDS011;51077;42.716;23.344;2022-07-24T13:21:29;8.03;;;4.63;;
64667;SDS011;51077;42.716;23.344;2022-07-24T13:23:55;8.03;;;4.40;;
64667;SDS011;51077;42.716;23.344;2022-07-24T13:26:21;5.60;;;4.33;;
64667;SDS011;51077;42.716;23.344;2022-07-24T13:28:46;7.23;;;5.20;;
64667;SDS011;51077;42.716;23.344;2022-07-24T13:31:12;7.50;;;4.30;;
64667;SDS011;51077;42.716;23.344;2022-07-24T13:33:38;9.00;;;4.37;;
64667;SDS011;51077;42.716;23.344;2022-07-24T13:36:03;7.70;;;4.97;;
64667;SDS011;51077;42.716;23.344;2022-07-24T13:38:29;5.83;;;4.70;;
64667;SDS011;51077;42.716;23.344;2022-07-24T13:40:55;9.27;;;4.77;;
64667;SDS011;51077;42.716;23.344;2022-07-24T13:43:20;6.53;;;4.80;;
64667;SDS011;51077;42.716;23.344;2022-07-24T13:45:45;8.47;;;4.87;;
64667;SDS011;51077;42.716;23.344;2022-07-24T13:48:11;8.87;;;4.97;;
64667;SDS011;51077;42.716;23.344;2022-07-24T13:50:36;8.70;;;4.53;;
64667;SDS011;51077;42.716;23.344;2022-07-24T13:53:02;7.13;;;5.30;;
64667;SDS011;51077;42.716;23.344;2022-07-24T13:55:28;7.53;;;4.63;;
64667;SDS011;51077;42.716;23.344;2022-07-24T13:57:55;6.83;;;4.97;;
64667;SDS011;51077;42.716;23.344;2022-07-24T14:00:20;6.90;;;4.80;;
64667;SDS011;51077;42.716;23.344;2022-07-24T14:02:46;6.10;;;4.77;;
64667;SDS011;51077;42.716;23.344;2022-07-24T14:05:11;5.60;;;4.40;;
64667;SDS011;51077;42.716;23.344;2022-07-24T14:07:37;10.47;;;4.90;;
64667;SDS011;51077;42.716;23.344;2022-07-24T14:10:02;16.73;;;5.53;;
64667;SDS011;51077;42.716;23.344;2022-07-24T14:12:28;19.13;;;6.00;;
64667;SDS011;51077;42.716;23.344;2022-07-24T14:14:54;19.80;;;6.27;;
64667;SDS011;51077;42.716;23.344;2022-07-24T14:17:19;16.30;;;5.87;;
64667;SDS011;51077;42.716;23.344;2022-07-24T14:19:45;24.67;;;5.87;;
64667;SDS011;51077;42.716;23.344;2022-07-24T14:22:10;19.17;;;6.27;;
64667;SDS011;51077;42.716;23.344;2022-07-24T14:24:38;12.03;;;5.40;;
64667;SDS011;51077;42.716;23.344;2022-07-24T14:27:04;13.73;;;6.03;;
64667;SDS011;51077;42.716;23.344;2022-07-24T14:29:29;16.03;;;6.20;;
64667;SDS011;51077;42.716;23.344;2022-07-24T14:31:55;17.80;;;6.60;;
64667;SDS011;51077;42.716;23.344;2022-07-24T14:34:20;14.27;;;6.00;;
64667;SDS011;51077;42.716;23.344;2022-07-24T14:36:46;14.87;;;6.63;;
64667;SDS011;51077;42.716;23.344;2022-07-24T14:39:11;10.27;;;6.40;;
64667;SDS011;51077;42.716;23.344;2022-07-24T14:41:37;8.47;;;6.67;;
64667;SDS011;51077;42.716;23.344;2022-07-24T14:44:03;9.30;;;5.70;;
64667;SDS011;51077;42.716;23.344;2022-07-24T14:46:29;9.97;;;6.00;;
64667;SDS011;51077;42.716;23.344;2022-07-24T14:48:54;8.23;;;5.93;;
64667;SDS011;51077;42.716;23.344;2022-07-24T14:51:20;7.93;;;5.67;;
64667;SDS011;51077;42.716;23.344;2022-07-24T14:53:45;6.77;;;6.07;;
64667;SDS011;51077;42.716;23.344;2022-07-24T14:56:11;6.53;;;5.93;;
64667;SDS011;51077;42.716;23.344;2022-07-24T14:58:36;7.47;;;6.77;;
64667;SDS011;51077;42.716;23.344;2022-07-24T15:01:02;8.63;;;6.50;;
64667;SDS011;51077;42.716;23.344;2022-07-24T15:03:27;9.13;;;6.87;;
64667;SDS011;51077;42.716;23.344;2022-07-24T15:05:53;7.90;;;6.30;;
64667;SDS011;51077;42.716;23.344;2022-07-24T15:08:18;7.60;;;6.90;;
64667;SDS011;51077;42.716;23.344;2022-07-24T15:10:43;7.50;;;6.80;;
64667;SDS011;51077;42.716;23.344;2022-07-24T15:13:09;8.03;;;6.50;;
64667;SDS011;51077;42.716;23.344;2022-07-24T15:15:34;9.30;;;6.50;;
64667;SDS011;51077;42.716;23.344;2022-07-24T15:18:00;9.73;;;7.33;;
64667;SDS011;51077;42.716;23.344;2022-07-24T15:20:25;8.83;;;7.17;;
64667;SDS011;51077;42.716;23.344;2022-07-24T15:22:51;8.10;;;7.10;;